Terminal Aerodrome Forecast
Issued by NWS

Home | Current Version | Previous Version | Text Only | Print | Product List | Glossary On
Versions: 1 2 3 4 5 6 7 8 9 10 11 12 13 14
440
FTUS43 KIWX 312339 AAB
TAFSBN
TAF AMD
KSBN 312339Z 0100/0124 28010KT P6SM VCTS SCT020 BKN040CB
     FM010200 12006KT P6SM VCSH SCT040 BKN100
     FM010400 14008KT P6SM SCT080 BKN250
     FM012000 22010KT P6SM VCTS BKN040CB=

USA.gov is the U.S. government's official web portal to all federal, state and local government web resources and services.